Time;durP1;ratioP1;P1;durP2;ratioP2;P2;SDS_P1;SDS_P2;PMS_P1;PMS_P2;Temp;Humidity;BMP_temperature;BMP_pressure;BME280_temperature;BME280_humidity;BME280_pressure;Samples;Min_cycle;Max_cycle;Signal;HPM_P1;HPM_P2
2021/07/06 00:01:50;;;;;;;2.70;1.15;;;13.80;99.90;;;;;;4875012;29;20454;-95
2021/07/06 00:04:17;;;;;;;4.07;1.20;;;13.70;99.90;;;;;;4853689;29;20441;-96
2021/07/06 00:06:45;;;;;;;3.17;1.02;;;13.70;99.90;;;;;;4867710;29;20519;-96
2021/07/06 00:09:13;;;;;;;1.98;1.13;;;13.70;99.90;;;;;;4870546;29;20512;-96
2021/07/06 00:11:40;;;;;;;1.73;0.90;;;13.80;99.90;;;;;;4873314;29;20523;-96
2021/07/06 00:14:11;;;;;;;2.30;1.20;;;13.80;99.90;;;;;;4873413;29;20517;-96
2021/07/06 00:16:40;;;;;;;2.37;1.10;;;13.70;99.90;;;;;;4874949;29;20463;-96
2021/07/06 00:19:08;;;;;;;2.28;1.20;;;13.70;99.90;;;;;;4861126;29;20485;-96
2021/07/06 00:21:53;;;;;;;2.08;1.10;;;13.70;99.90;;;;;;4891482;29;20458;-96
2021/07/06 00:24:36;;;;;;;1.63;1.10;;;13.70;99.90;;;;;;4869696;29;20457;-96
2021/07/06 00:27:17;;;;;;;6.23;1.30;;;13.90;99.90;;;;;;4869193;29;20432;-96
2021/07/06 00:30:01;;;;;;;2.67;1.00;;;13.70;99.90;;;;;;4892144;24;20430;-96
2021/07/06 00:32:43;;;;;;;3.05;1.20;;;13.70;99.90;;;;;;4863554;29;20446;-96
2021/07/06 00:35:26;;;;;;;4.28;1.10;;;13.70;99.90;;;;;;4878905;29;20498;-96
2021/07/06 00:38:12;;;;;;;2.50;1.08;;;13.90;99.90;;;;;;4862413;29;20446;-96
2021/07/06 00:40:58;;;;;;;3.45;1.30;;;13.80;99.90;;;;;;4862867;29;20433;-96
2021/07/06 00:43:46;;;;;;;4.57;1.10;;;13.70;99.90;;;;;;4862132;29;20442;-96
2021/07/06 00:46:18;;;;;;;2.55;1.20;;;13.70;99.90;;;;;;4862003;29;20434;-96
2021/07/06 00:48:52;;;;;;;1.87;1.20;;;13.60;99.90;;;;;;4848568;29;20505;-96
2021/07/06 00:51:50;;;;;;;2.30;1.10;;;13.60;99.90;;;;;;4866513;29;20433;-96
2021/07/06 00:54:38;;;;;;;3.25;1.00;;;14.00;99.90;;;;;;4879597;29;20483;-96
2021/07/06 00:57:40;;;;;;;4.32;1.00;;;14.00;99.90;;;;;;4864040;29;20455;-96
2021/07/06 01:00:21;;;;;;;5.95;1.10;;;14.10;99.90;;;;;;4861531;29;20442;-96
2021/07/06 01:03:10;;;;;;;4.30;1.30;;;14.20;99.90;;;;;;4854029;29;20438;-96
2021/07/06 01:05:56;;;;;;;2.47;1.02;;;14.20;99.90;;;;;;4864885;29;20406;-96
2021/07/06 01:08:46;;;;;;;3.10;1.10;;;14.20;99.90;;;;;;4854378;29;20457;-96
2021/07/06 01:11:46;;;;;;;1.92;1.10;;;14.00;99.90;;;;;;4865204;29;20430;-96
2021/07/06 01:14:53;;;;;;;;;;;;;;;;;;;;;
2021/07/06 01:17:48;;;;;;;3.38;0.98;;;13.80;99.90;;;;;;4866814;29;20565;-96
2021/07/06 01:20:32;;;;;;;3.55;1.30;;;13.90;99.90;;;;;;4843138;29;20430;-96
2021/07/06 01:23:21;;;;;;;2.65;1.30;;;13.90;99.90;;;;;;4885604;23;20482;-96
2021/07/06 01:25:57;;;;;;;2.83;1.20;;;13.90;99.90;;;;;;4882523;29;20485;-96
2021/07/06 01:28:25;;;;;;;1.50;1.10;;;13.90;99.90;;;;;;4864520;29;20509;-96
2021/07/06 01:30:54;;;;;;;2.50;1.40;;;13.70;99.90;;;;;;4854836;29;20438;-96
2021/07/06 01:33:27;;;;;;;2.33;1.20;;;13.80;99.90;;;;;;4854055;29;20928;-96
2021/07/06 01:35:57;;;;;;;2.63;1.20;;;13.60;99.90;;;;;;4853789;29;20947;-96
2021/07/06 01:38:27;;;;;;;4.47;1.30;;;13.50;99.90;;;;;;4853094;29;20438;-96
2021/07/06 01:40:55;;;;;;;2.20;1.33;;;13.70;99.90;;;;;;4855170;29;20487;-96
2021/07/06 01:43:23;;;;;;;4.13;1.20;;;13.70;99.90;;;;;;4853838;29;20510;-96
2021/07/06 01:45:50;;;;;;;1.65;1.25;;;13.50;99.90;;;;;;4852320;29;20947;-96
2021/07/06 01:48:19;;;;;;;4.43;1.33;;;13.50;99.90;;;;;;4853759;29;20974;-96
2021/07/06 01:51:37;;;;;;;2.20;1.40;;;13.30;99.90;;;;;;4862544;29;20445;-96
2021/07/06 01:54:22;;;;;;;3.75;1.20;;;13.40;99.90;;;;;;4880104;29;20441;-96
2021/07/06 01:57:27;;;;;;;5.93;1.70;;;13.40;99.90;;;;;;4821673;29;20481;-96
2021/07/06 02:00:31;;;;;;;2.00;1.27;;;13.40;99.90;;;;;;4817156;29;20450;-96
2021/07/06 02:03:50;;;;;;;2.65;1.50;;;13.40;99.90;;;;;;4770857;30;20454;-96
2021/07/06 02:06:44;;;;;;;2.47;1.40;;;13.50;99.90;;;;;;4754203;30;20534;-96
2021/07/06 02:10:06;;;;;;;2.88;1.20;;;13.50;99.90;;;;;;4754438;30;20429;-96
2021/07/06 02:13:29;;;;;;;1.92;1.20;;;13.70;99.90;;;;;;4747927;30;20463;-96
2021/07/06 02:16:28;;;;;;;3.47;1.40;;;13.70;99.90;;;;;;4727574;30;21083;-96
2021/07/06 02:19:11;;;;;;;4.50;1.23;;;13.80;99.90;;;;;;4715123;30;20483;-96
2021/07/06 02:21:56;;;;;;;4.93;1.45;;;13.70;99.90;;;;;;4740885;30;20513;-96
2021/07/06 02:24:28;;;;;;;3.20;1.42;;;13.40;99.90;;;;;;4727704;30;20475;-96
2021/07/06 02:27:03;;;;;;;4.40;1.60;;;13.40;99.90;;;;;;4730649;30;21213;-96
2021/07/06 02:29:42;;;;;;;2.60;1.52;;;13.40;99.90;;;;;;4731935;30;20534;-96
2021/07/06 02:32:28;;;;;;;4.15;1.40;;;13.40;99.90;;;;;;4744121;30;20447;-96
2021/07/06 02:35:33;;;;;;;3.42;1.40;;;13.40;99.90;;;;;;4747009;30;20458;-95
2021/07/06 02:38:20;;;;;;;4.13;1.30;;;13.50;99.90;;;;;;4751556;30;20469;-96
2021/07/06 02:40:49;;;;;;;3.47;1.40;;;13.60;99.90;;;;;;4747940;30;20615;-96
2021/07/06 02:43:21;;;;;;;3.22;1.30;;;13.50;99.90;;;;;;4747491;30;20476;-96
2021/07/06 02:45:58;;;;;;;3.00;1.30;;;13.50;99.90;;;;;;4734634;30;20470;-96
2021/07/06 02:48:31;;;;;;;3.22;1.60;;;13.50;99.90;;;;;;4770201;30;20445;-96
2021/07/06 02:51:02;;;;;;;2.50;1.90;;;13.30;99.90;;;;;;4804705;29;20451;-96
2021/07/06 02:53:55;;;;;;;6.60;1.60;;;13.10;99.90;;;;;;4827920;29;20460;-95
2021/07/06 02:56:39;;;;;;;3.70;1.60;;;13.00;99.90;;;;;;4846289;29;20427;-96
2021/07/06 03:00:00;;;;;;;2.70;1.50;;;12.90;99.90;;;;;;4835633;29;20420;-96
2021/07/06 03:03:37;;;;;;;3.05;1.73;;;13.00;99.90;;;;;;4828322;29;20457;-96
2021/07/06 03:06:19;;;;;;;4.25;1.60;;;13.00;99.90;;;;;;4814085;29;20432;-95
2021/07/06 03:09:02;;;;;;;3.28;1.30;;;13.00;99.90;;;;;;4815561;29;20464;-96
2021/07/06 03:12:07;;;;;;;;;;;;;;;;;;;;;
2021/07/06 03:20:34;;;;;;;3.03;1.50;;;13.20;99.90;;;;;;5361491;23;20452;-96
2021/07/06 03:23:48;;;;;;;2.60;1.40;;;13.10;99.90;;;;;;4873585;29;20448;-96
2021/07/06 03:26:44;;;;;;;5.32;1.27;;;13.20;99.90;;;;;;4861077;29;20436;-95
2021/07/06 03:29:35;;;;;;;2.85;1.50;;;13.20;99.90;;;;;;4870282;29;20443;-94
2021/07/06 03:32:33;;;;;;;;;;;;;;;;;;;;;
2021/07/06 03:36:09;;;;;;;4.40;1.83;;;13.10;99.90;;;;;;4870607;29;20443;-96
2021/07/06 03:39:14;;;;;;;6.78;1.90;;;13.00;99.90;;;;;;4864764;29;20426;-95
2021/07/06 03:42:48;;;;;;;3.03;1.70;;;13.10;99.90;;;;;;4860124;29;20442;-96
2021/07/06 03:47:06;;;;;;;;;;;;;;;;;;;;;
2021/07/06 03:54:27;;;;;;;5.57;1.70;;;13.20;99.90;;;;;;4786948;30;20473;-96
2021/07/06 04:05:52;;;;;;;5.13;1.97;;;13.40;99.90;;;;;;4913628;24;20424;-95
2021/07/06 04:08:53;;;;;;;5.38;2.17;;;13.40;99.90;;;;;;4894015;29;20445;-94
2021/07/06 04:12:38;;;;;;;4.30;2.03;;;13.50;99.90;;;;;;4873280;29;20421;-96
2021/07/06 04:16:27;;;;;;;4.63;2.15;;;13.50;99.90;;;;;;4836563;29;20504;-96
2021/07/06 05:01:14;;;;;;;2.95;1.60;;;14.20;99.90;;;;;;4923455;23;20432;-96
2021/07/06 05:12:24;;;;;;;;;;;;;;;;;;;;;
2021/07/06 05:15:45;;;;;;;3.95;1.50;;;14.60;99.90;;;;;;4683500;30;20522;-95
2021/07/06 14:50:50;;;;;;;0.63;0.40;;;35.10;40.60;;;;;;4848445;29;20517;-93
2021/07/06 15:05:44;;;;;;;0.50;0.22;;;35.70;45.50;;;;;;5510150;23;20445;-94
2021/07/06 15:09:01;;;;;;;1.08;0.30;;;35.50;46.10;;;;;;4857810;29;20417;-96
2021/07/06 15:15:39;;;;;;;0.80;0.20;;;35.50;44.60;;;;;;4848647;29;20436;-94
2021/07/06 15:18:06;;;;;;;0.50;0.30;;;35.50;47.60;;;;;;4846708;29;20444;-95
2021/07/06 15:20:36;;;;;;;1.10;0.30;;;35.60;39.90;;;;;;4845031;29;20440;-96
2021/07/06 15:23:05;;;;;;;0.30;0.30;;;35.20;45.70;;;;;;4849950;29;20444;-96
2021/07/06 15:25:34;;;;;;;3.10;0.30;;;35.00;46.70;;;;;;4829088;29;21033;-94
2021/07/06 15:28:06;;;;;;;0.80;0.30;;;34.90;40.90;;;;;;4844346;29;20440;-93
2021/07/06 15:30:45;;;;;;;1.13;0.30;;;35.20;40.10;;;;;;4830378;29;20432;-93
2021/07/06 15:33:15;;;;;;;0.45;0.20;;;35.30;47.20;;;;;;4845288;29;20492;-94
2021/07/06 15:36:03;;;;;;;0.82;0.32;;;34.90;43.30;;;;;;4831201;29;20430;-93
2021/07/06 15:38:35;;;;;;;2.40;0.35;;;35.20;46.50;;;;;;4829205;29;20428;-94
2021/07/06 15:41:04;;;;;;;3.63;0.40;;;35.30;48.50;;;;;;4828755;29;20488;-94
2021/07/06 15:43:34;;;;;;;1.35;0.40;;;35.30;50.30;;;;;;4811566;29;20454;-93
2021/07/06 15:46:03;;;;;;;1.25;0.40;;;35.30;51.00;;;;;;4810839;29;20826;-93
2021/07/06 15:48:32;;;;;;;0.45;0.40;;;35.20;49.00;;;;;;4825355;29;20448;-93
2021/07/06 15:50:59;;;;;;;0.40;0.38;;;35.00;42.10;;;;;;4810207;29;20441;-93
2021/07/06 15:53:34;;;;;;;1.10;0.40;;;34.70;49.50;;;;;;4866020;29;20454;-95
2021/07/06 15:56:08;;;;;;;1.67;0.30;;;34.50;48.50;;;;;;4843768;29;20858;-93
2021/07/06 15:58:38;;;;;;;1.00;0.30;;;34.20;49.40;;;;;;4827928;29;20451;-93
2021/07/06 16:01:05;;;;;;;0.50;0.20;;;34.10;46.40;;;;;;4828439;29;20443;-92
2021/07/06 16:03:33;;;;;;;25.83;1.13;;;34.00;48.40;;;;;;4828019;29;21018;-92
2021/07/06 16:06:01;;;;;;;3.92;0.40;;;33.60;50.20;;;;;;4827581;29;20432;-92
2021/07/06 16:08:28;;;;;;;12.23;0.68;;;33.30;51.30;;;;;;4828135;29;20439;-92
2021/07/06 16:10:55;;;;;;;2.67;0.50;;;33.30;50.80;;;;;;4828271;29;20526;-93
2021/07/06 16:13:23;;;;;;;0.55;0.38;;;33.30;50.80;;;;;;4827309;29;20463;-93
2021/07/06 16:15:52;;;;;;;18.48;1.05;;;33.50;47.30;;;;;;4828005;29;20563;-96
2021/07/06 16:18:20;;;;;;;4.45;0.40;;;33.50;52.80;;;;;;4831473;29;20500;-95
2021/07/06 16:20:47;;;;;;;1.00;0.40;;;33.60;52.80;;;;;;4829318;29;20442;-96
2021/07/06 16:23:14;;;;;;;1.10;0.35;;;33.40;53.20;;;;;;4829630;29;20432;-95
2021/07/06 16:25:42;;;;;;;0.60;0.30;;;33.40;54.70;;;;;;4849205;29;20426;-96
2021/07/06 16:28:09;;;;;;;3.25;0.30;;;33.30;51.80;;;;;;4878935;29;20444;-96
2021/07/06 16:30:36;;;;;;;0.47;0.30;;;33.00;52.80;;;;;;4866466;29;20437;-96
2021/07/06 16:33:03;;;;;;;0.75;0.30;;;32.60;51.20;;;;;;4866086;29;20439;-96
2021/07/06 16:35:31;;;;;;;0.77;0.28;;;32.70;50.40;;;;;;4866410;29;20535;-95
2021/07/06 16:38:04;;;;;;;1.00;0.30;;;32.80;52.30;;;;;;4870293;29;20429;-96
2021/07/06 16:40:32;;;;;;;0.30;0.30;;;32.50;53.60;;;;;;4867993;29;20436;-96
2021/07/06 16:42:59;;;;;;;1.15;0.35;;;32.40;51.50;;;;;;4866729;29;20930;-95
2021/07/06 16:45:26;;;;;;;1.40;0.40;;;32.30;52.60;;;;;;4852957;29;20432;-96
2021/07/06 16:47:54;;;;;;;2.00;0.40;;;32.30;52.80;;;;;;4868433;29;20477;-96
2021/07/06 16:50:21;;;;;;;0.88;0.30;;;31.80;51.30;;;;;;4867186;29;20435;-96
2021/07/06 17:58:56;;;;;;;3.83;0.50;;;25.90;61.80;;;;;;4837886;29;20448;-96
2021/07/06 18:04:14;;;;;;;2.47;0.50;;;25.90;62.80;;;;;;4875469;29;20478;-96
2021/07/06 18:06:42;;;;;;;2.50;0.40;;;26.00;63.10;;;;;;4888895;29;20515;-96
2021/07/06 18:09:10;;;;;;;1.60;0.50;;;25.80;63.90;;;;;;4874695;29;20960;-96
2021/07/06 18:11:39;;;;;;;1.95;0.55;;;25.70;64.10;;;;;;4872152;29;20432;-96
2021/07/06 18:14:18;;;;;;;4.40;0.60;;;25.80;66.00;;;;;;4894577;29;20838;-96
2021/07/06 18:17:04;;;;;;;1.00;0.70;;;25.50;67.00;;;;;;4876150;29;20452;-96
2021/07/06 18:19:51;;;;;;;1.60;0.50;;;25.10;67.60;;;;;;4891448;29;20488;-96
2021/07/06 18:22:35;;;;;;;1.02;0.60;;;24.70;70.00;;;;;;4871604;29;20450;-94
2021/07/06 18:25:21;;;;;;;2.63;0.60;;;24.30;70.80;;;;;;5134666;23;20399;-91
2021/07/06 18:27:48;;;;;;;2.15;0.60;;;23.90;71.40;;;;;;4851463;29;20904;-91
2021/07/06 18:30:51;;;;;;;1.35;0.68;;;23.30;76.00;;;;;;4868383;29;20434;-93
2021/07/06 18:34:12;;;;;;;2.70;0.60;;;22.90;78.80;;;;;;4866594;29;20567;-93
2021/07/06 18:38:07;;;;;;;1.20;0.70;;;22.50;80.60;;;;;;4866202;29;20502;-94
2021/07/06 18:40:57;;;;;;;3.67;0.93;;;22.20;84.90;;;;;;4850974;29;20434;-94
2021/07/06 18:43:39;;;;;;;4.75;0.85;;;22.20;84.20;;;;;;4862675;29;20430;-94
2021/07/06 18:46:37;;;;;;;2.70;0.90;;;22.00;87.60;;;;;;4835817;29;20554;-95
2021/07/06 18:49:43;;;;;;;4.60;1.00;;;21.90;90.10;;;;;;4866433;29;20422;-94
2021/07/06 18:52:43;;;;;;;8.20;1.30;;;21.60;92.10;;;;;;4865587;29;20442;-95
2021/07/06 18:55:25;;;;;;;4.80;1.10;;;21.70;94.40;;;;;;4839758;29;20932;-94
2021/07/06 18:58:26;;;;;;;5.10;1.10;;;21.50;96.40;;;;;;4825067;29;20837;-94
2021/07/06 19:01:33;;;;;;;4.00;1.20;;;21.40;98.50;;;;;;4861987;29;20426;-94
2021/07/06 19:04:46;;;;;;;2.42;1.10;;;21.30;98.80;;;;;;4865104;29;20430;-94
2021/07/06 19:07:57;;;;;;;4.20;1.20;;;21.20;99.90;;;;;;4839075;29;20435;-95
2021/07/06 19:10:46;;;;;;;5.20;1.40;;;21.10;99.90;;;;;;4852621;29;20438;-96
2021/07/06 19:13:53;;;;;;;2.92;1.23;;;21.00;99.90;;;;;;4838316;29;20430;-94
2021/07/06 19:17:03;;;;;;;2.35;1.38;;;21.00;99.90;;;;;;4835931;29;20440;-94
2021/07/06 19:19:52;;;;;;;3.10;1.20;;;20.90;99.90;;;;;;4864324;29;20426;-94
2021/07/06 19:23:21;;;;;;;4.05;1.20;;;20.80;99.90;;;;;;4841793;29;20474;-95
2021/07/06 19:26:44;;;;;;;4.03;1.60;;;20.80;99.90;;;;;;4872819;29;20439;-95
2021/07/06 19:33:16;;;;;;;3.53;1.50;;;21.20;99.90;;;;;;4874176;29;20991;-94
2021/07/06 19:36:09;;;;;;;2.20;1.42;;;21.40;99.90;;;;;;4821665;29;20447;-94
2021/07/06 19:39:07;;;;;;;2.40;1.50;;;21.40;99.90;;;;;;4878038;29;20433;-95
2021/07/06 19:41:40;;;;;;;2.92;1.40;;;21.50;99.90;;;;;;4867348;29;20437;-95
2021/07/06 19:44:17;;;;;;;3.83;1.50;;;21.40;99.90;;;;;;4830027;29;20510;-93
2021/07/06 19:47:12;;;;;;;2.67;1.58;;;21.50;99.90;;;;;;4842687;29;20434;-96
2021/07/06 19:50:07;;;;;;;5.00;1.73;;;21.50;99.90;;;;;;4807547;29;20452;-93
2021/07/06 19:52:51;;;;;;;2.78;1.95;;;21.50;99.90;;;;;;4818641;29;20438;-94
2021/07/06 19:55:45;;;;;;;2.72;1.70;;;21.60;99.90;;;;;;4801857;29;20502;-96
2021/07/06 19:58:33;;;;;;;3.25;1.65;;;21.60;99.90;;;;;;4791410;29;20445;-94
2021/07/06 20:01:34;;;;;;;6.38;1.90;;;21.50;99.90;;;;;;4833838;29;20430;-94
2021/07/06 20:04:38;;;;;;;8.83;1.80;;;21.30;99.90;;;;;;4823877;29;20452;-94
2021/07/06 20:07:45;;;;;;;6.70;1.80;;;21.10;99.90;;;;;;4826154;29;20502;-94
2021/07/06 20:11:11;;;;;;;6.40;1.90;;;21.10;99.90;;;;;;4768979;30;20517;-94
2021/07/06 20:14:22;;;;;;;5.15;2.00;;;21.10;99.90;;;;;;4736786;30;20446;-93
2021/07/06 20:17:35;;;;;;;3.88;1.83;;;21.20;99.90;;;;;;4703045;30;20480;-94
2021/07/06 20:20:31;;;;;;;5.65;1.80;;;21.10;99.90;;;;;;4688247;30;20550;-95
2021/07/06 20:23:44;;;;;;;2.30;1.75;;;21.00;99.90;;;;;;4669339;30;20449;-96
2021/07/06 20:26:38;;;;;;;5.80;1.85;;;20.90;99.90;;;;;;4654365;30;20469;-95
2021/07/06 20:29:22;;;;;;;4.78;1.80;;;20.90;99.90;;;;;;4653155;30;20457;-94
2021/07/06 20:32:32;;;;;;;6.10;2.00;;;20.90;99.90;;;;;;4651225;30;20533;-95
2021/07/06 20:35:15;;;;;;;6.00;1.95;;;21.10;99.90;;;;;;4656215;30;20527;-96
2021/07/06 20:38:09;;;;;;;8.77;2.10;;;21.10;99.90;;;;;;4652143;30;20545;-95
2021/07/06 20:41:02;;;;;;;5.03;1.83;;;21.10;99.90;;;;;;4650229;30;20462;-94
2021/07/06 20:44:02;;;;;;;5.32;2.20;;;21.10;99.90;;;;;;4650008;30;20837;-94
2021/07/06 20:46:46;;;;;;;4.13;2.00;;;21.10;99.90;;;;;;4611988;30;20450;-95
2021/07/06 20:50:07;;;;;;;5.57;1.80;;;21.10;99.90;;;;;;4659152;30;20432;-95
2021/07/06 21:05:58;;;;;;;6.20;2.53;;;21.00;99.90;;;;;;4863331;29;20801;-96
2021/07/06 21:09:54;;;;;;;4.63;2.30;;;20.70;99.90;;;;;;4815800;29;20988;-95
2021/07/06 21:13:14;;;;;;;4.13;2.30;;;20.70;99.90;;;;;;4843347;29;20464;-96
2021/07/06 21:16:30;;;;;;;4.00;2.47;;;20.60;99.90;;;;;;4771538;30;20495;-94
2021/07/06 21:19:46;;;;;;;3.77;2.57;;;20.60;99.90;;;;;;4727239;30;20531;-95
2021/07/06 21:23:26;;;;;;;8.38;2.55;;;20.50;99.90;;;;;;4736083;30;20464;-95
2021/07/06 21:50:41;;;;;;;6.60;2.47;;;20.40;99.90;;;;;;4868829;29;20446;-95
2021/07/06 21:53:09;;;;;;;3.85;2.80;;;20.10;99.90;;;;;;4845849;29;20529;-95
2021/07/06 21:55:37;;;;;;;9.67;3.00;;;19.90;99.90;;;;;;4846232;29;20454;-95
2021/07/06 21:58:04;;;;;;;3.65;2.90;;;19.70;99.90;;;;;;4846345;29;20936;-94
2021/07/06 22:00:31;;;;;;;7.43;2.70;;;19.70;99.90;;;;;;4846487;29;20788;-96
2021/07/06 22:02:59;;;;;;;5.38;2.50;;;19.60;99.90;;;;;;4846289;29;20521;-94
2021/07/06 22:05:29;;;;;;;7.30;3.20;;;19.40;99.90;;;;;;4832491;29;20438;-96
2021/07/06 22:07:57;;;;;;;4.95;2.88;;;19.40;99.90;;;;;;4846823;29;20439;-96
2021/07/06 22:10:25;;;;;;;5.78;3.00;;;19.20;99.90;;;;;;4845698;29;20438;-94
2021/07/06 22:12:52;;;;;;;4.15;2.92;;;19.20;99.90;;;;;;4848415;29;20434;-96
2021/07/06 22:15:20;;;;;;;4.65;2.92;;;19.10;99.90;;;;;;4848858;29;20850;-93
2021/07/06 22:17:47;;;;;;;6.57;3.08;;;19.00;99.90;;;;;;4847262;29;20441;-96
2021/07/06 22:20:17;;;;;;;4.40;3.00;;;18.90;99.90;;;;;;4846298;29;20502;-94
2021/07/06 22:22:44;;;;;;;4.13;2.80;;;19.10;99.90;;;;;;4831813;29;20461;-96
2021/07/06 22:25:15;;;;;;;7.70;3.00;;;19.20;99.90;;;;;;4848000;29;20533;-96
2021/07/06 22:27:44;;;;;;;6.18;2.90;;;19.30;99.90;;;;;;4846340;29;20426;-96
2021/07/06 22:30:13;;;;;;;13.20;2.83;;;19.30;99.90;;;;;;4847214;29;20453;-96
2021/07/06 22:32:41;;;;;;;5.40;3.20;;;19.20;99.90;;;;;;4847817;29;21030;-96
2021/07/06 22:35:18;;;;;;;10.07;2.53;;;19.10;99.90;;;;;;4846015;29;20455;-95
2021/07/06 22:37:47;;;;;;;3.45;2.25;;;19.30;99.90;;;;;;4847988;29;20789;-94
2021/07/06 22:40:17;;;;;;;3.90;2.00;;;19.50;99.90;;;;;;4850286;29;20434;-96
2021/07/06 22:42:44;;;;;;;3.28;2.10;;;19.50;99.90;;;;;;4849926;29;20446;-96
2021/07/06 22:45:14;;;;;;;7.15;1.92;;;19.50;99.90;;;;;;4850080;29;21015;-95
2021/07/06 22:47:41;;;;;;;2.90;2.03;;;19.50;99.90;;;;;;4848965;29;20828;-95
2021/07/06 22:50:09;;;;;;;3.38;1.77;;;19.40;99.90;;;;;;4848578;29;20796;-95
2021/07/06 22:52:36;;;;;;;8.60;1.85;;;19.30;99.90;;;;;;4848644;29;20435;-94
2021/07/06 22:55:05;;;;;;;4.97;1.90;;;19.10;99.90;;;;;;4848366;29;20799;-94
2021/07/06 22:57:32;;;;;;;3.90;1.90;;;19.00;99.90;;;;;;4848744;29;20522;-95
2021/07/06 23:00:01;;;;;;;5.97;1.67;;;19.00;99.90;;;;;;4851726;29;20434;-96
2021/07/06 23:02:28;;;;;;;14.63;1.40;;;18.90;99.90;;;;;;4854019;29;20525;-96
2021/07/06 23:04:59;;;;;;;2.28;1.10;;;18.80;99.90;;;;;;4865816;29;20426;-95
2021/07/06 23:07:29;;;;;;;4.07;1.30;;;18.70;99.90;;;;;;4859688;29;20442;-96
2021/07/06 23:09:59;;;;;;;4.97;1.23;;;18.60;99.90;;;;;;4855149;29;20473;-96
2021/07/06 23:12:30;;;;;;;14.13;1.50;;;18.60;99.90;;;;;;4856907;29;20471;-96
2021/07/06 23:14:58;;;;;;;2.90;1.10;;;18.50;99.90;;;;;;4874224;29;20446;-96
2021/07/06 23:17:34;;;;;;;2.65;1.10;;;18.40;99.90;;;;;;4854791;29;20523;-96
2021/07/06 23:20:05;;;;;;;7.25;1.15;;;18.20;99.90;;;;;;4854182;29;20502;-96
2021/07/06 23:22:32;;;;;;;3.55;1.20;;;18.20;99.90;;;;;;4854855;29;20437;-96
2021/07/06 23:25:00;;;;;;;9.10;1.33;;;18.10;99.90;;;;;;4854111;29;20490;-96
2021/07/06 23:27:27;;;;;;;4.75;1.30;;;18.10;99.90;;;;;;4853676;29;20443;-96
2021/07/06 23:29:58;;;;;;;7.38;1.20;;;18.00;99.90;;;;;;4852635;29;20494;-96
2021/07/06 23:32:26;;;;;;;3.70;1.10;;;17.90;99.90;;;;;;4853395;29;20454;-96
2021/07/06 23:35:05;;;;;;;1.37;0.90;;;17.90;99.90;;;;;;4854038;29;20502;-96
2021/07/06 23:37:33;;;;;;;6.50;1.20;;;17.80;99.90;;;;;;4852522;29;20438;-96
2021/07/06 23:40:09;;;;;;;3.37;1.10;;;17.80;99.90;;;;;;4853140;29;20440;-96
2021/07/06 23:42:36;;;;;;;11.68;1.30;;;17.70;99.90;;;;;;4850608;29;20450;-96
2021/07/06 23:45:03;;;;;;;5.38;1.27;;;17.70;99.90;;;;;;4848489;29;20442;-96
2021/07/06 23:47:31;;;;;;;5.67;1.20;;;17.60;99.90;;;;;;4848471;29;20434;-96
2021/07/06 23:49:58;;;;;;;8.50;1.33;;;17.60;99.90;;;;;;4848316;29;20461;-96
2021/07/06 23:52:25;;;;;;;1.95;1.10;;;17.50;99.90;;;;;;4848492;29;20500;-96
2021/07/06 23:54:52;;;;;;;3.22;1.17;;;17.60;99.90;;;;;;4848825;29;20442;-96
2021/07/06 23:57:21;;;;;;;1.75;1.10;;;17.50;99.90;;;;;;4849532;29;20801;-96
2021/07/06 23:59:48;;;;;;;16.05;1.40;;;17.30;99.90;;;;;;4850250;29;20525;-96
